createdAt,value
2022-08-07T00:00:26.247Z,0.90
2022-08-07T00:03:06.429Z,0.90
2022-08-07T00:05:37.655Z,0.80
2022-08-07T00:08:07.752Z,0.80
2022-08-07T00:10:48.090Z,1.10
2022-08-07T00:13:26.751Z,1.20
2022-08-07T00:15:55.345Z,1.10
2022-08-07T00:18:26.370Z,0.80
2022-08-07T00:21:07.945Z,0.80
2022-08-07T00:23:39.585Z,0.70
2022-08-07T00:26:18.835Z,1.20
2022-08-07T00:28:57.761Z,0.90
2022-08-07T00:31:38.038Z,1.00
2022-08-07T00:34:09.686Z,0.90
2022-08-07T00:36:43.291Z,0.90
2022-08-07T00:39:16.467Z,1.20
2022-08-07T00:42:01.974Z,0.90
2022-08-07T00:44:34.263Z,1.20
2022-08-07T00:47:03.374Z,0.70
2022-08-07T00:50:19.337Z,1.70
2022-08-07T00:52:22.406Z,1.00
2022-08-07T00:54:53.549Z,1.00
2022-08-07T00:57:25.971Z,1.00
2022-08-07T00:59:54.520Z,0.70
2022-08-07T01:02:29.100Z,0.90
2022-08-07T01:04:59.177Z,1.10
2022-08-07T01:07:29.232Z,1.20
2022-08-07T01:10:06.300Z,1.20
2022-08-07T01:12:53.989Z,0.90
2022-08-07T01:15:35.641Z,1.10
2022-08-07T01:18:16.771Z,1.10
2022-08-07T01:20:59.472Z,0.80
2022-08-07T01:23:38.104Z,1.50
2022-08-07T01:26:12.175Z,1.30
2022-08-07T01:28:48.514Z,1.00
2022-08-07T01:31:22.089Z,1.20
2022-08-07T01:33:56.172Z,1.00
2022-08-07T01:36:33.976Z,0.90
2022-08-07T01:39:14.292Z,1.10
2022-08-07T01:42:06.163Z,1.30
2022-08-07T01:44:35.457Z,1.10
2022-08-07T01:48:16.930Z,1.80
2022-08-07T01:49:54.721Z,1.20
2022-08-07T01:52:24.291Z,1.90
2022-08-07T01:54:55.325Z,1.00
2022-08-07T01:57:28.246Z,1.30
2022-08-07T02:00:13.065Z,1.60
2022-08-07T02:03:19.335Z,1.80
2022-08-07T02:05:55.304Z,1.80
2022-08-07T02:08:28.558Z,1.10
2022-08-07T02:10:59.594Z,1.10
2022-08-07T02:13:56.617Z,1.40
2022-08-07T02:16:19.663Z,1.50
2022-08-07T02:18:49.066Z,1.30
2022-08-07T02:21:19.103Z,1.40
2022-08-07T02:23:46.944Z,1.30
2022-08-07T02:26:32.950Z,1.40
2022-08-07T02:29:05.077Z,1.30
2022-08-07T02:31:33.148Z,1.50
2022-08-07T02:34:10.946Z,1.30
2022-08-07T02:36:43.775Z,1.70
2022-08-07T02:39:17.508Z,1.40
2022-08-07T02:42:10.071Z,1.20
2022-08-07T02:44:48.179Z,1.50
2022-08-07T02:47:45.574Z,1.50
2022-08-07T02:50:14.718Z,1.60
2022-08-07T02:53:20.019Z,1.70
2022-08-07T02:56:03.251Z,1.50
2022-08-07T02:58:35.129Z,1.10
2022-08-07T03:01:04.190Z,1.20
2022-08-07T03:03:50.131Z,1.20
2022-08-07T03:06:34.582Z,1.30
2022-08-07T03:09:10.995Z,1.10
2022-08-07T03:11:52.662Z,1.00
2022-08-07T03:14:28.027Z,1.30
2022-08-07T03:16:56.979Z,1.20
2022-08-07T03:19:28.924Z,1.50
2022-08-07T03:21:58.721Z,2.40
2022-08-07T03:24:28.238Z,1.80
2022-08-07T03:27:02.968Z,2.00
2022-08-07T03:29:49.637Z,2.40
2022-08-07T03:32:38.748Z,1.30
2022-08-07T03:35:18.136Z,1.20
2022-08-07T03:37:56.660Z,1.20
2022-08-07T03:40:31.070Z,1.60
2022-08-07T03:43:04.582Z,1.30
2022-08-07T03:45:43.413Z,1.10
2022-08-07T03:48:16.128Z,1.20
2022-08-07T03:50:55.643Z,1.10
2022-08-07T03:53:30.286Z,1.40
2022-08-07T03:56:32.468Z,1.10
2022-08-07T03:59:10.157Z,0.90
2022-08-07T04:01:45.427Z,2.20
2022-08-07T04:04:17.387Z,1.30
2022-08-07T04:06:46.631Z,0.90
2022-08-07T04:09:23.257Z,1.10
2022-08-07T04:12:24.147Z,1.40
2022-08-07T04:14:45.964Z,1.00
2022-08-07T04:17:21.134Z,0.70
2022-08-07T04:19:54.419Z,1.10
2022-08-07T04:22:27.411Z,1.20
2022-08-07T04:25:00.866Z,1.50
2022-08-07T04:27:36.139Z,1.70
2022-08-07T04:30:21.197Z,1.10
2022-08-07T04:33:10.213Z,1.10
2022-08-07T04:35:50.175Z,1.20
2022-08-07T04:38:18.677Z,1.10
2022-08-07T04:40:51.769Z,1.10
2022-08-07T04:44:09.982Z,1.00
2022-08-07T04:46:34.855Z,1.60
2022-08-07T04:49:18.422Z,1.10
2022-08-07T04:52:00.156Z,1.30
2022-08-07T04:58:15.549Z,1.20
2022-08-07T04:58:38.775Z,1.50
2022-08-07T05:01:54.530Z,1.10
2022-08-07T05:04:34.042Z,1.20
2022-08-07T05:07:20.482Z,1.40
2022-08-07T05:10:18.424Z,1.80
2022-08-07T05:13:01.575Z,1.90
2022-08-07T05:15:51.261Z,3.10
2022-08-07T05:18:30.082Z,2.70
2022-08-07T05:21:03.856Z,1.90
2022-08-07T05:23:47.616Z,1.30
2022-08-07T05:26:24.425Z,1.60
2022-08-07T05:28:57.447Z,1.60
2022-08-07T05:31:35.229Z,1.20
2022-08-07T05:34:11.253Z,1.30
2022-08-07T05:36:52.991Z,1.50
2022-08-07T05:40:05.660Z,1.20
2022-08-07T05:42:37.007Z,0.90
2022-08-07T05:45:25.908Z,0.70
2022-08-07T05:48:02.364Z,1.20
2022-08-07T05:50:39.590Z,0.70
2022-08-07T05:54:13.678Z,1.00
2022-08-07T05:56:02.295Z,1.10
2022-08-07T05:58:36.260Z,1.70
2022-08-07T06:01:10.615Z,1.00
2022-08-07T06:03:57.028Z,0.70
2022-08-07T06:06:29.883Z,0.80
2022-08-07T06:09:04.350Z,0.80
2022-08-07T06:11:34.246Z,0.80
2022-08-07T06:14:12.620Z,1.00
2022-08-07T06:16:50.449Z,3.10
2022-08-07T06:19:52.006Z,0.70
2022-08-07T06:22:22.741Z,1.00
2022-08-07T06:25:01.187Z,1.00
2022-08-07T06:28:00.412Z,0.50
2022-08-07T06:30:24.089Z,0.80
2022-08-07T06:33:00.978Z,0.90
2022-08-07T06:35:30.594Z,0.70
2022-08-07T06:40:50.394Z,1.10
2022-08-07T06:43:21.188Z,0.70
2022-08-07T06:46:11.597Z,1.80
2022-08-07T06:48:42.100Z,0.90
2022-08-07T06:51:31.047Z,1.30
2022-08-07T06:55:29.493Z,1.00
2022-08-07T06:56:51.979Z,1.00
2022-08-07T07:00:14.843Z,0.90
2022-08-07T07:02:49.236Z,1.00
2022-08-07T07:05:12.675Z,0.60
2022-08-07T07:08:00.148Z,0.80
2022-08-07T07:10:33.725Z,0.90
2022-08-07T07:13:16.627Z,0.90
2022-08-07T07:16:19.724Z,1.00
2022-08-07T07:18:51.989Z,0.70
2022-08-07T07:21:40.372Z,0.90
2022-08-07T07:24:17.341Z,0.50
2022-08-07T07:26:49.733Z,0.80
2022-08-07T07:29:39.904Z,0.70
2022-08-07T07:32:14.251Z,0.80
2022-08-07T07:34:46.189Z,1.00
2022-08-07T07:37:22.140Z,0.90
2022-08-07T07:40:15.788Z,0.90
2022-08-07T07:46:37.011Z,0.80
2022-08-07T07:48:34.907Z,0.80
2022-08-07T07:51:08.116Z,1.00
2022-08-07T07:53:51.504Z,0.80
2022-08-07T07:56:29.938Z,1.00
2022-08-07T07:59:06.101Z,0.80
2022-08-07T08:02:03.893Z,0.70
2022-08-07T08:04:25.655Z,0.90
2022-08-07T08:06:54.301Z,0.80
2022-08-07T08:09:29.443Z,0.80
2022-08-07T08:12:02.336Z,0.80
2022-08-07T08:14:34.423Z,1.10
2022-08-07T08:17:55.266Z,0.70
2022-08-07T08:20:22.325Z,0.90
2022-08-07T08:23:08.433Z,0.50
2022-08-07T08:26:03.347Z,0.80
2022-08-07T08:28:39.211Z,0.60
2022-08-07T08:31:30.399Z,0.80
2022-08-07T08:34:26.708Z,0.60
2022-08-07T08:36:57.905Z,1.00
2022-08-07T08:39:26.673Z,0.60
2022-08-07T08:42:18.451Z,0.70
2022-08-07T08:45:14.445Z,1.10
2022-08-07T08:48:35.919Z,0.90
2022-08-07T08:51:29.554Z,0.70
2022-08-07T08:54:15.190Z,0.50
2022-08-07T08:56:47.589Z,0.60
2022-08-07T08:59:30.460Z,0.60
2022-08-07T09:02:38.089Z,0.90
2022-08-07T09:06:18.080Z,0.40
2022-08-07T09:08:58.282Z,0.60
2022-08-07T09:11:50.534Z,0.50
2022-08-07T09:14:39.448Z,0.90
2022-08-07T09:17:26.245Z,0.90
2022-08-07T09:20:35.753Z,0.30
2022-08-07T09:24:32.117Z,0.60
2022-08-07T09:26:53.909Z,1.10
2022-08-07T09:30:03.183Z,1.40
2022-08-07T09:32:56.331Z,0.80
2022-08-07T09:36:05.468Z,0.70
2022-08-07T09:39:11.498Z,0.50
2022-08-07T09:42:23.057Z,0.90
2022-08-07T09:47:49.909Z,0.50
2022-08-07T09:48:21.426Z,0.60
2022-08-07T09:52:10.120Z,0.90
2022-08-07T09:54:47.604Z,0.70
2022-08-07T09:58:05.513Z,0.70
2022-08-07T10:00:52.185Z,0.60
2022-08-07T10:04:06.005Z,0.70
2022-08-07T10:07:06.681Z,0.80
2022-08-07T10:10:02.605Z,0.70
2022-08-07T10:15:44.376Z,0.70
2022-08-07T10:18:26.336Z,0.80
2022-08-07T10:21:03.106Z,0.60
2022-08-07T10:24:21.689Z,0.50
2022-08-07T10:27:19.090Z,0.70
2022-08-07T10:29:57.038Z,0.70
2022-08-07T10:33:17.717Z,0.90
2022-08-07T10:36:29.770Z,1.00
2022-08-07T10:39:05.534Z,0.70
2022-08-07T10:41:51.651Z,0.80
2022-08-07T10:44:48.240Z,0.70
2022-08-07T10:47:52.854Z,0.70
2022-08-07T10:50:26.013Z,0.40
2022-08-07T10:53:10.001Z,0.30
2022-08-07T10:56:05.067Z,1.00
2022-08-07T10:59:07.156Z,0.70
2022-08-07T11:02:33.645Z,0.80
2022-08-07T11:05:48.883Z,0.50
2022-08-07T11:08:43.445Z,0.80
2022-08-07T11:11:21.345Z,0.70
2022-08-07T11:14:45.488Z,0.80
2022-08-07T11:17:23.005Z,0.80
2022-08-07T11:20:06.080Z,0.60
2022-08-07T11:23:30.804Z,0.60
2022-08-07T11:26:22.217Z,0.50
2022-08-07T11:29:13.046Z,0.90
2022-08-07T11:32:43.359Z,0.90
2022-08-07T11:35:25.084Z,0.90
2022-08-07T11:38:17.489Z,0.70
2022-08-07T11:41:06.280Z,0.60
2022-08-07T11:44:10.857Z,0.50
2022-08-07T11:47:01.873Z,0.80
2022-08-07T11:50:30.772Z,1.30
2022-08-07T11:53:25.417Z,1.10
2022-08-07T11:56:26.904Z,0.60
2022-08-07T12:00:08.179Z,0.80
2022-08-07T12:02:53.668Z,0.70
2022-08-07T12:05:50.744Z,1.00
2022-08-07T12:08:25.879Z,0.80
2022-08-07T12:11:21.271Z,0.70
2022-08-07T12:14:05.257Z,1.00
2022-08-07T12:16:44.940Z,1.60
2022-08-07T12:19:35.951Z,0.30
2022-08-07T12:22:47.002Z,0.60
2022-08-07T12:26:21.596Z,0.70
2022-08-07T12:28:53.154Z,0.50
2022-08-07T12:32:03.648Z,0.40
2022-08-07T12:34:36.219Z,0.70
2022-08-07T12:37:08.566Z,0.60
2022-08-07T12:39:50.992Z,0.90
2022-08-07T12:42:27.145Z,0.70
2022-08-07T12:45:04.437Z,0.80
2022-08-07T12:48:01.094Z,0.70
2022-08-07T12:50:49.063Z,0.60
2022-08-07T12:53:18.270Z,0.50
2022-08-07T12:56:12.727Z,1.00
2022-08-07T12:58:46.738Z,0.80
2022-08-07T13:01:45.413Z,0.70
2022-08-07T13:05:01.690Z,0.80
2022-08-07T13:08:11.900Z,0.50
2022-08-07T13:11:16.342Z,0.60
2022-08-07T13:14:05.852Z,0.70
2022-08-07T13:16:52.497Z,0.70
2022-08-07T13:20:02.842Z,0.70
2022-08-07T13:22:53.531Z,1.10
2022-08-07T13:25:30.039Z,0.80
2022-08-07T13:28:13.052Z,0.70
2022-08-07T13:31:02.122Z,0.50
2022-08-07T13:34:30.402Z,0.80
2022-08-07T13:37:32.262Z,0.70
2022-08-07T13:40:34.913Z,0.50
2022-08-07T13:46:11.225Z,0.60
2022-08-07T13:48:27.570Z,0.60
2022-08-07T13:51:02.605Z,1.10
2022-08-07T13:54:00.874Z,0.50
2022-08-07T13:56:35.831Z,0.60
2022-08-07T13:59:27.206Z,0.80
2022-08-07T14:02:12.999Z,0.70
2022-08-07T14:04:48.983Z,0.80
2022-08-07T14:07:23.774Z,0.60
2022-08-07T14:10:15.019Z,0.90
2022-08-07T14:12:54.740Z,0.90
2022-08-07T14:15:39.789Z,0.40
2022-08-07T14:18:28.446Z,0.80
2022-08-07T14:22:03.921Z,0.80
2022-08-07T14:24:34.285Z,0.90
2022-08-07T14:28:11.418Z,0.50
2022-08-07T14:30:07.509Z,1.20
2022-08-07T14:35:45.232Z,0.60
2022-08-07T14:38:26.818Z,0.80
2022-08-07T14:41:14.719Z,0.60
2022-08-07T14:46:33.268Z,0.80
2022-08-07T14:49:55.825Z,0.60
2022-08-07T14:54:41.683Z,0.80
2022-08-07T15:00:05.297Z,1.10
2022-08-07T15:02:36.866Z,1.00
2022-08-07T15:05:20.245Z,1.10
2022-08-07T15:13:35.910Z,0.90
2022-08-07T15:18:56.128Z,0.90
2022-08-07T15:27:26.315Z,0.90
2022-08-07T15:30:31.919Z,0.80
2022-08-07T15:33:05.485Z,1.00
2022-08-07T15:36:01.259Z,1.00
2022-08-07T15:42:45.246Z,0.80
2022-08-07T15:44:13.161Z,1.10
2022-08-07T15:46:49.985Z,0.70
2022-08-07T15:49:25.545Z,1.10
2022-08-07T15:52:13.735Z,0.80
2022-08-07T15:57:40.363Z,1.80
2022-08-07T16:00:06.230Z,1.40
2022-08-07T16:02:46.962Z,0.70
2022-08-07T16:05:19.400Z,0.90
2022-08-07T16:08:31.754Z,0.70
2022-08-07T16:10:52.162Z,0.70
2022-08-07T16:13:58.765Z,0.80
2022-08-07T16:16:59.895Z,0.70
2022-08-07T16:19:42.883Z,0.80
2022-08-07T16:22:56.586Z,0.70
2022-08-07T16:30:08.412Z,0.80
2022-08-07T16:31:50.022Z,1.30
2022-08-07T16:34:23.592Z,0.90
2022-08-07T16:37:03.026Z,1.10
2022-08-07T16:40:28.695Z,0.80
2022-08-07T16:43:12.816Z,0.80
2022-08-07T16:50:26.771Z,0.70
2022-08-07T16:53:56.990Z,1.10
2022-08-07T16:56:13.559Z,0.70
2022-08-07T16:59:14.356Z,0.50
2022-08-07T17:01:56.555Z,0.80
2022-08-07T17:04:32.291Z,0.70
2022-08-07T17:07:28.537Z,0.80
2022-08-07T17:10:32.327Z,0.70
2022-08-07T17:14:18.469Z,0.60
2022-08-07T17:16:55.509Z,0.80
2022-08-07T17:20:01.877Z,0.80
2022-08-07T17:22:37.513Z,0.70
2022-08-07T17:25:13.408Z,0.90
2022-08-07T17:28:00.732Z,0.90
2022-08-07T17:31:00.719Z,1.20
2022-08-07T17:34:15.514Z,0.60
2022-08-07T17:36:59.915Z,1.50
2022-08-07T17:42:58.489Z,0.60
2022-08-07T17:45:38.646Z,0.90
2022-08-07T17:48:13.000Z,0.50
2022-08-07T17:51:02.596Z,0.50
2022-08-07T17:54:12.720Z,0.70
2022-08-07T17:56:49.681Z,1.00
2022-08-07T17:59:35.642Z,0.70
2022-08-07T18:02:17.426Z,0.70
2022-08-07T18:05:21.572Z,0.60
2022-08-07T18:08:25.647Z,0.90
2022-08-07T18:12:07.680Z,0.70
2022-08-07T18:14:24.203Z,0.50
2022-08-07T18:16:59.403Z,0.70
2022-08-07T18:21:09.921Z,1.00
2022-08-07T18:23:42.525Z,0.80
2022-08-07T18:26:01.534Z,1.00
2022-08-07T18:29:00.479Z,0.90
2022-08-07T18:31:58.616Z,0.80
2022-08-07T18:35:04.620Z,0.80
2022-08-07T18:38:59.168Z,0.70
2022-08-07T18:41:44.938Z,0.60
2022-08-07T18:45:09.273Z,0.80
2022-08-07T18:50:40.772Z,1.20
2022-08-07T18:53:39.700Z,2.10
2022-08-07T18:56:30.838Z,0.80
2022-08-07T18:59:46.964Z,1.00
2022-08-07T19:02:34.169Z,0.80
2022-08-07T19:06:03.108Z,0.90
2022-08-07T19:09:00.473Z,1.40
2022-08-07T19:12:05.109Z,1.60
2022-08-07T19:14:57.817Z,1.30
2022-08-07T19:17:58.962Z,1.70
2022-08-07T19:20:39.414Z,1.90
2022-08-07T19:23:57.881Z,1.70
2022-08-07T19:27:01.670Z,1.90
2022-08-07T19:31:06.122Z,1.60
2022-08-07T19:32:25.878Z,1.80
2022-08-07T19:35:00.301Z,2.00
2022-08-07T19:37:56.929Z,2.40
2022-08-07T19:40:16.937Z,2.50
2022-08-07T19:42:59.988Z,2.10
2022-08-07T19:46:01.267Z,1.90
2022-08-07T19:48:18.479Z,2.10
2022-08-07T19:50:53.222Z,1.80
2022-08-07T19:54:34.718Z,2.00
2022-08-07T19:56:59.714Z,1.50
2022-08-07T19:58:58.659Z,1.60
2022-08-07T20:01:55.866Z,1.80
2022-08-07T20:04:37.328Z,1.80
2022-08-07T20:07:09.070Z,2.20
2022-08-07T20:10:33.763Z,1.80
2022-08-07T20:12:35.975Z,2.70
2022-08-07T20:15:15.573Z,2.20
2022-08-07T20:18:01.742Z,2.80
2022-08-07T20:20:34.997Z,2.10
2022-08-07T20:23:10.863Z,2.10
2022-08-07T20:25:57.556Z,1.80
2022-08-07T20:28:29.283Z,2.30
2022-08-07T20:30:58.155Z,2.10
2022-08-07T20:33:38.059Z,1.60
2022-08-07T20:36:07.202Z,1.50
2022-08-07T20:38:35.712Z,2.20
2022-08-07T20:41:27.794Z,1.50
2022-08-07T20:44:02.285Z,1.90
2022-08-07T20:46:34.586Z,1.30
2022-08-07T20:49:58.082Z,1.80
2022-08-07T20:54:55.462Z,1.70
2022-08-07T21:00:08.103Z,1.70
2022-08-07T21:02:58.749Z,2.30
2022-08-07T21:05:50.826Z,1.70
2022-08-07T21:08:35.005Z,2.10
2022-08-07T21:11:16.291Z,1.60
2022-08-07T21:14:16.148Z,1.70
2022-08-07T21:17:06.845Z,1.80
2022-08-07T21:20:00.500Z,1.50
2022-08-07T21:22:25.615Z,1.70
2022-08-07T21:25:12.124Z,1.80
2022-08-07T21:28:01.838Z,1.80
2022-08-07T21:31:09.962Z,1.70
2022-08-07T21:33:51.010Z,1.90
2022-08-07T21:36:50.345Z,1.90
2022-08-07T21:40:27.629Z,1.40
2022-08-07T21:43:25.297Z,2.20
2022-08-07T21:46:39.755Z,1.70
2022-08-07T21:49:25.649Z,2.00
2022-08-07T21:52:12.040Z,1.80
2022-08-07T21:55:19.396Z,1.90
2022-08-07T21:58:30.224Z,1.50
2022-08-07T22:01:05.066Z,1.70
2022-08-07T22:03:49.999Z,1.80
2022-08-07T22:06:31.583Z,1.70
2022-08-07T22:09:08.076Z,1.60
2022-08-07T22:12:05.849Z,1.30
2022-08-07T22:14:44.122Z,1.50
2022-08-07T22:17:35.995Z,1.50
2022-08-07T22:20:28.522Z,1.30
2022-08-07T22:23:13.063Z,1.70
2022-08-07T22:26:20.018Z,1.40
2022-08-07T22:29:13.746Z,1.60
2022-08-07T22:32:31.550Z,1.50
2022-08-07T22:35:02.085Z,1.50
2022-08-07T22:38:02.907Z,1.70
2022-08-07T22:40:43.180Z,1.40
2022-08-07T22:43:14.572Z,1.40
2022-08-07T22:46:56.016Z,2.10
2022-08-07T22:49:16.157Z,1.40
2022-08-07T22:52:11.955Z,1.50
2022-08-07T22:55:22.817Z,1.80
2022-08-07T22:58:22.050Z,1.90
2022-08-07T23:01:15.457Z,1.30
2022-08-07T23:04:34.114Z,1.90
2022-08-07T23:08:22.604Z,1.70
2022-08-07T23:11:20.087Z,1.80
2022-08-07T23:14:17.487Z,1.50
2022-08-07T23:17:01.853Z,1.70
2022-08-07T23:20:40.622Z,2.20
2022-08-07T23:24:04.250Z,1.50
2022-08-07T23:27:06.228Z,2.00
2022-08-07T23:30:39.637Z,2.00
2022-08-07T23:34:34.603Z,1.70
2022-08-07T23:37:17.732Z,1.60
2022-08-07T23:40:18.099Z,1.80
2022-08-07T23:43:41.528Z,1.50
2022-08-07T23:46:35.918Z,1.90
2022-08-07T23:49:50.690Z,1.90
2022-08-07T23:53:05.382Z,1.60
2022-08-07T23:55:55.298Z,1.60
